sensor_id;sensor_type;location;lat;lon;timestamp;P1;P2;P0
61879;PMS7003;47817;52.798;27.544;2023-04-26T00:01:20;6.8;5.6;5
61879;PMS7003;47817;52.798;27.544;2023-04-26T00:06:52;7.3;6.5;5.3
61879;PMS7003;47817;52.798;27.544;2023-04-26T00:11:18;9;6.8;5.4
61879;PMS7003;47817;52.798;27.544;2023-04-26T00:16:52;6.8;6.4;5.4
61879;PMS7003;47817;52.798;27.544;2023-04-26T00:21:52;8.2;7;6
61879;PMS7003;47817;52.798;27.544;2023-04-26T00:26:26;7.8;6.6;5.6
61879;PMS7003;47817;52.798;27.544;2023-04-26T00:31:30;8.8;7.8;6
61879;PMS7003;47817;52.798;27.544;2023-04-26T00:36:08;8.2;6.2;5.4
61879;PMS7003;47817;52.798;27.544;2023-04-26T00:41:44;7.2;6;5.2
61879;PMS7003;47817;52.798;27.544;2023-04-26T00:46:40;8;7.2;5.8
61879;PMS7003;47817;52.798;27.544;2023-04-26T00:51:08;8;7.4;5.8
61879;PMS7003;47817;52.798;27.544;2023-04-26T00:56:52;8.3;7.3;5.8
61879;PMS7003;47817;52.798;27.544;2023-04-26T01:01:50;7.4;6.8;5.6
61879;PMS7003;47817;52.798;27.544;2023-04-26T01:06:08;8.4;7;5.8
61879;PMS7003;47817;52.798;27.544;2023-04-26T01:11:30;7.6;6.8;5.6
61879;PMS7003;47817;52.798;27.544;2023-04-26T01:16:40;7.8;6.8;5.4
61879;PMS7003;47817;52.798;27.544;2023-04-26T01:21:20;8.2;6.8;5.2
61879;PMS7003;47817;52.798;27.544;2023-04-26T01:26:18;8.8;6.8;5.2
61879;PMS7003;47817;52.798;27.544;2023-04-26T01:31:38;9.6;7.4;6.4
61879;PMS7003;47817;52.798;27.544;2023-04-26T01:36:08;7.3;6.5;6
61879;PMS7003;47817;52.798;27.544;2023-04-26T01:41:52;8.8;7.2;6.2
61879;PMS7003;47817;52.798;27.544;2023-04-26T01:46:08;8.4;7.6;5.6
61879;PMS7003;47817;52.798;27.544;2023-04-26T01:51:52;8.6;7.6;6.2
61879;PMS7003;47817;52.798;27.544;2023-04-26T01:56:50;10;8.4;6.6
61879;PMS7003;47817;52.798;27.544;2023-04-26T02:01:52;8.6;7.6;6
61879;PMS7003;47817;52.798;27.544;2023-04-26T02:06:28;11;9;6.2
61879;PMS7003;47817;52.798;27.544;2023-04-26T02:11:42;11;9.4;7.2
61879;PMS7003;47817;52.798;27.544;2023-04-26T02:16:20;9.2;7.4;6
61879;PMS7003;47817;52.798;27.544;2023-04-26T02:21:49;9.4;8.2;6.6
61879;PMS7003;47817;52.798;27.544;2023-04-26T02:26:20;10.5;7.5;6.3
61879;PMS7003;47817;52.798;27.544;2023-04-26T02:31:08;7.6;6.8;5.6
61879;PMS7003;47817;52.798;27.544;2023-04-26T02:36:52;10.6;8.4;6.4
61879;PMS7003;47817;52.798;27.544;2023-04-26T02:41:40;9.2;7.2;6
61879;PMS7003;47817;52.798;27.544;2023-04-26T02:46:18;10.6;7.8;6
61879;PMS7003;47817;52.798;27.544;2023-04-26T02:51:42;8.4;7.4;6
61879;PMS7003;47817;52.798;27.544;2023-04-26T02:56:26;14;12.4;9
61879;PMS7003;47817;52.798;27.544;2023-04-26T03:01:26;10.8;8;6.8
61879;PMS7003;47817;52.798;27.544;2023-04-26T03:06:42;8;7.2;6
61879;PMS7003;47817;52.798;27.544;2023-04-26T03:11:50;8.2;7.6;5.8
61879;PMS7003;47817;52.798;27.544;2023-04-26T03:16:21;9;9;6.6
61879;PMS7003;47817;52.798;27.544;2023-04-26T03:21:18;8.2;8;6.2
61879;PMS7003;47817;52.798;27.544;2023-04-26T03:26:54;8.2;7;5.6
61879;PMS7003;47817;52.798;27.544;2023-04-26T03:31:54;8.8;7.2;6
61879;PMS7003;47817;52.798;27.544;2023-04-26T03:36:20;10.8;9;6.8
61879;PMS7003;47817;52.798;27.544;2023-04-26T03:41:08;9.8;9;6.8
61879;PMS7003;47817;52.798;27.544;2023-04-26T03:46:52;12.4;10.6;8.2
61879;PMS7003;47817;52.798;27.544;2023-04-26T03:51:52;13.6;11;9
61879;PMS7003;47817;52.798;27.544;2023-04-26T03:56:08;7.6;6.8;6.2
61879;PMS7003;47817;52.798;27.544;2023-04-26T04:01:30;9.4;8.2;6.4
61879;PMS7003;47817;52.798;27.544;2023-04-26T04:06:10;8.6;7.2;6.4
61879;PMS7003;47817;52.798;27.544;2023-04-26T04:11:08;10;8.2;6
61879;PMS7003;47817;52.798;27.544;2023-04-26T04:16:20;9.4;8.6;6.8
61879;PMS7003;47817;52.798;27.544;2023-04-26T04:21:54;8.3;7.3;6.3
61879;PMS7003;47817;52.798;27.544;2023-04-26T04:26:20;11.4;9.4;7.6
61879;PMS7003;47817;52.798;27.544;2023-04-26T04:31:54;12.4;10.8;8.2
61879;PMS7003;47817;52.798;27.544;2023-04-26T04:36:40;12;10.2;7.6
61879;PMS7003;47817;52.798;27.544;2023-04-26T04:41:28;10.3;8;6.8
61879;PMS7003;47817;52.798;27.544;2023-04-26T04:46:38;11;8.6;7.2
61879;PMS7003;47817;52.798;27.544;2023-04-26T04:51:48;12.4;10.2;8
61879;PMS7003;47817;52.798;27.544;2023-04-26T04:56:20;12;10.4;8
61879;PMS7003;47817;52.798;27.544;2023-04-26T05:01:44;11.2;9.6;7.6
61879;PMS7003;47817;52.798;27.544;2023-04-26T05:06:54;12.8;10.2;7.8
61879;PMS7003;47817;52.798;27.544;2023-04-26T05:11:20;13.2;10.6;9.2
61879;PMS7003;47817;52.798;27.544;2023-04-26T05:16:50;12.4;10.8;8.4
61879;PMS7003;47817;52.798;27.544;2023-04-26T05:21:50;15;11.6;9
61879;PMS7003;47817;52.798;27.544;2023-04-26T05:26:38;21.4;19.4;13.2
61879;PMS7003;47817;52.798;27.544;2023-04-26T05:31:30;16.6;12.6;10.2
61879;PMS7003;47817;52.798;27.544;2023-04-26T05:36:08;21.6;18.4;13.4
61879;PMS7003;47817;52.798;27.544;2023-04-26T05:41:42;14;13.3;10.5
61879;PMS7003;47817;52.798;27.544;2023-04-26T05:46:38;18.2;14.4;11.6
61879;PMS7003;47817;52.798;27.544;2023-04-26T05:51:20;13;11.6;9.4
61879;PMS7003;47817;52.798;27.544;2023-04-26T05:56:52;14.8;12.8;9.4
61879;PMS7003;47817;52.798;27.544;2023-04-26T06:01:52;15.3;13;9.8
61879;PMS7003;47817;52.798;27.544;2023-04-26T06:06:20;12.6;11;8.6
61879;PMS7003;47817;52.798;27.544;2023-04-26T06:11:32;9.6;8.2;7.2
61879;PMS7003;47817;52.798;27.544;2023-04-26T06:16:21;10.6;9.6;7
61879;PMS7003;47817;52.798;27.544;2023-04-26T06:21:28;15.8;13;10
61879;PMS7003;47817;52.798;27.544;2023-04-26T06:26:30;20.4;17.6;13.6
61879;PMS7003;47817;52.798;27.544;2023-04-26T06:31:28;13.4;11.4;9.2
61879;PMS7003;47817;52.798;27.544;2023-04-26T06:36:30;11.8;10.2;8
61879;PMS7003;47817;52.798;27.544;2023-04-26T06:41:52;11.8;10.2;7.2
61879;PMS7003;47817;52.798;27.544;2023-04-26T07:16:08;9;8;7.2
61879;PMS7003;47817;52.798;27.544;2023-04-26T07:21:20;8.8;7.8;6.6
61879;PMS7003;47817;52.798;27.544;2023-04-26T07:26:52;6.8;6.2;5.2
61879;PMS7003;47817;52.798;27.544;2023-04-26T07:31:20;9.4;7.4;6.4
61879;PMS7003;47817;52.798;27.544;2023-04-26T07:36:40;9.3;7.8;6.8
61879;PMS7003;47817;52.798;27.544;2023-04-26T07:41:40;8.6;6.8;6
61879;PMS7003;47817;52.798;27.544;2023-04-26T07:46:08;8.6;7.6;6
61879;PMS7003;47817;52.798;27.544;2023-04-26T07:51:28;7.6;6.8;6.2
61879;PMS7003;47817;52.798;27.544;2023-04-26T07:56:14;7.6;7.2;6
61879;PMS7003;47817;52.798;27.544;2023-04-26T08:01:08;8;6.8;5.6
61879;PMS7003;47817;52.798;27.544;2023-04-26T08:06:44;9.4;7.6;6.2
61879;PMS7003;47817;52.798;27.544;2023-04-26T08:11:52;8.6;7.4;6.2
61879;PMS7003;47817;52.798;27.544;2023-04-26T08:16:08;8.6;7.6;6
61879;PMS7003;47817;52.798;27.544;2023-04-26T08:21:52;7.5;7;5.8
61879;PMS7003;47817;52.798;27.544;2023-04-26T08:26:52;8.4;6.6;5.4
61879;PMS7003;47817;52.798;27.544;2023-04-26T08:31:40;10.6;8.6;7.2
61879;PMS7003;47817;52.798;27.544;2023-04-26T08:36:08;9;8.2;7
61879;PMS7003;47817;52.798;27.544;2023-04-26T08:41:21;5.8;5;4.6
61879;PMS7003;47817;52.798;27.544;2023-04-26T08:46:46;5.8;4.6;3.8
61879;PMS7003;47817;52.798;27.544;2023-04-26T08:51:38;6.8;6;5.5
61879;PMS7003;47817;52.798;27.544;2023-04-26T08:56:20;6.2;5.6;5
61879;PMS7003;47817;52.798;27.544;2023-04-26T09:01:52;5.8;5.6;4.8
61879;PMS7003;47817;52.798;27.544;2023-04-26T09:06:52;6.2;5.2;4
61879;PMS7003;47817;52.798;27.544;2023-04-26T09:11:18;5.8;5.4;4.4
61879;PMS7003;47817;52.798;27.544;2023-04-26T09:16:35;5.2;4.4;3.8
61879;PMS7003;47817;52.798;27.544;2023-04-26T09:21:40;6.4;5.2;4.4
61879;PMS7003;47817;52.798;27.544;2023-04-26T09:26:20;5.8;5;4.2
61879;PMS7003;47817;52.798;27.544;2023-04-26T09:31:38;6;4.8;4
61879;PMS7003;47817;52.798;27.544;2023-04-26T09:36:45;5.8;5;4
61879;PMS7003;47817;52.798;27.544;2023-04-26T09:41:08;6.6;5.4;4.8
61879;PMS7003;47817;52.798;27.544;2023-04-26T09:46:58;5.8;5.4;4.2
61879;PMS7003;47817;52.798;27.544;2023-04-26T09:51:26;6.8;5.4;4.8
61879;PMS7003;47817;52.798;27.544;2023-04-26T09:56:57;6.5;6;5
61879;PMS7003;47817;52.798;27.544;2023-04-26T10:01:38;5.4;5;4.4
61879;PMS7003;47817;52.798;27.544;2023-04-26T10:06:52;9.6;8.2;6.6
61879;PMS7003;47817;52.798;27.544;2023-04-26T10:11:30;9.4;8.4;6.8
61879;PMS7003;47817;52.798;27.544;2023-04-26T10:16:44;7;6;5
61879;PMS7003;47817;52.798;27.544;2023-04-26T10:21:10;7.6;6.2;5.2
61879;PMS7003;47817;52.798;27.544;2023-04-26T10:26:48;5.4;5;4.4
61879;PMS7003;47817;52.798;27.544;2023-04-26T10:31:08;5.2;4.4;3.8
61879;PMS7003;47817;52.798;27.544;2023-04-26T10:37:05;6;4.5;3.8
61879;PMS7003;47817;52.798;27.544;2023-04-26T10:42:10;7;6.2;5.6
61879;PMS7003;47817;52.798;27.544;2023-04-26T10:46:31;6.4;5.8;5.2
61879;PMS7003;47817;52.798;27.544;2023-04-26T10:51:32;5.8;5;4
61879;PMS7003;47817;52.798;27.544;2023-04-26T10:56:52;4.5;4.3;3.8
61879;PMS7003;47817;52.798;27.544;2023-04-26T11:01:28;7;6.4;5.2
61879;PMS7003;47817;52.798;27.544;2023-04-26T11:06:08;8.2;6.6;5.6
61879;PMS7003;47817;52.798;27.544;2023-04-26T11:11:50;7;6;4.8
61879;PMS7003;47817;52.798;27.544;2023-04-26T11:16:54;6.6;5.8;4.6
61879;PMS7003;47817;52.798;27.544;2023-04-26T11:21:32;6.2;5.8;4.8
61879;PMS7003;47817;52.798;27.544;2023-04-26T11:26:54;6.8;6;5.2
61879;PMS7003;47817;52.798;27.544;2023-04-26T11:31:55;6.2;5.2;4.8
61879;PMS7003;47817;52.798;27.544;2023-04-26T11:36:35;5.3;5.3;4.8
61879;PMS7003;47817;52.798;27.544;2023-04-26T11:41:28;7.2;6;5
61879;PMS7003;47817;52.798;27.544;2023-04-26T11:46:20;6.4;5.6;4.6
61879;PMS7003;47817;52.798;27.544;2023-04-26T11:51:34;6.4;5.2;4.4
61879;PMS7003;47817;52.798;27.544;2023-04-26T11:56:40;6.6;5;4
61879;PMS7003;47817;52.798;27.544;2023-04-26T12:01:08;5.2;4.8;4.2
61879;PMS7003;47817;52.798;27.544;2023-04-26T12:06:54;5.6;5.4;4.8
61879;PMS7003;47817;52.798;27.544;2023-04-26T12:11:46;4.8;3.5;3.3
61879;PMS7003;47817;52.798;27.544;2023-04-26T12:16:08;5.2;4.8;4
61879;PMS7003;47817;52.798;27.544;2023-04-26T12:21:38;6.6;4.8;4.2
61879;PMS7003;47817;52.798;27.544;2023-04-26T12:26:52;6;5.4;4.6
61879;PMS7003;47817;52.798;27.544;2023-04-26T12:31:08;5.6;4.4;4.2
61879;PMS7003;47817;52.798;27.544;2023-04-26T12:36:16;4.4;4.4;3.8
61879;PMS7003;47817;52.798;27.544;2023-04-26T12:41:38;5.2;4.6;3.8
61879;PMS7003;47817;52.798;27.544;2023-04-26T12:46:08;8.8;7.6;6.2
61879;PMS7003;47817;52.798;27.544;2023-04-26T12:51:52;11.6;10.8;8.4
61879;PMS7003;47817;52.798;27.544;2023-04-26T12:56:24;10.8;9.4;6.8
61879;PMS7003;47817;52.798;27.544;2023-04-26T13:01:52;13;10.5;7.3
61879;PMS7003;47817;52.798;27.544;2023-04-26T13:06:38;15.4;13;9.2
61879;PMS7003;47817;52.798;27.544;2023-04-26T13:11:54;17;14.3;10.8
61879;PMS7003;47817;52.798;27.544;2023-04-26T13:16:31;17.4;13.6;10
61879;PMS7003;47817;52.798;27.544;2023-04-26T13:21:44;17.6;13.4;9.2
61879;PMS7003;47817;52.798;27.544;2023-04-26T13:26:32;13.4;12.2;9.6
61879;PMS7003;47817;52.798;27.544;2023-04-26T13:31:38;20.8;14.6;9.6
61879;PMS7003;47817;52.798;27.544;2023-04-26T13:36:48;14.6;12;8
61879;PMS7003;47817;52.798;27.544;2023-04-26T13:41:08;17;14.4;9.4
61879;PMS7003;47817;52.798;27.544;2023-04-26T13:46:54;16.4;12.4;8.8
61879;PMS7003;47817;52.798;27.544;2023-04-26T13:51:08;16.2;12;8.8
61879;PMS7003;47817;52.798;27.544;2023-04-26T13:56:46;13.2;11.8;9
61879;PMS7003;47817;52.798;27.544;2023-04-26T14:01:54;14.4;11.6;8.6
61879;PMS7003;47817;52.798;27.544;2023-04-26T14:06:26;15.5;12.3;8
61879;PMS7003;47817;52.798;27.544;2023-04-26T14:11:26;15.2;11.4;8.6
61879;PMS7003;47817;52.798;27.544;2023-04-26T14:16:46;14;10.8;8
61879;PMS7003;47817;52.798;27.544;2023-04-26T14:21:52;15.5;12.3;8.8
61879;PMS7003;47817;52.798;27.544;2023-04-26T14:26:08;12;10.6;7.6
61879;PMS7003;47817;52.798;27.544;2023-04-26T14:31:32;13.2;10.4;8
61879;PMS7003;47817;52.798;27.544;2023-04-26T14:36:50;13.2;9.8;6.6
61879;PMS7003;47817;52.798;27.544;2023-04-26T14:41:40;11.8;10.2;6.8
61879;PMS7003;47817;52.798;27.544;2023-04-26T14:46:18;17.2;15.8;13.8
61879;PMS7003;47817;52.798;27.544;2023-04-26T14:51:24;10;7.4;5
61879;PMS7003;47817;52.798;27.544;2023-04-26T14:56:54;10.2;9.2;7.4
61879;PMS7003;47817;52.798;27.544;2023-04-26T15:01:40;9.8;7.6;6
61879;PMS7003;47817;52.798;27.544;2023-04-26T15:06:36;10.3;8.5;5.8
61879;PMS7003;47817;52.798;27.544;2023-04-26T15:11:20;7.4;6.2;4.6
61879;PMS7003;47817;52.798;27.544;2023-04-26T15:16:34;7.6;6.4;5.2
61879;PMS7003;47817;52.798;27.544;2023-04-26T15:21:20;7;6.2;4.8
61879;PMS7003;47817;52.798;27.544;2023-04-26T15:26:32;9;7.8;5.8
61879;PMS7003;47817;52.798;27.544;2023-04-26T15:31:58;7.4;6;4.8
61879;PMS7003;47817;52.798;27.544;2023-04-26T15:36:20;8;5.8;4.2
61879;PMS7003;47817;52.798;27.544;2023-04-26T15:41:10;6.4;5;3.4
61879;PMS7003;47817;52.798;27.544;2023-04-26T15:46:40;7.4;5.2;3.4
61879;PMS7003;47817;52.798;27.544;2023-04-26T15:51:20;9;6.2;4.8
61879;PMS7003;47817;52.798;27.544;2023-04-26T15:56:56;5.2;4.4;3.2
61879;PMS7003;47817;52.798;27.544;2023-04-26T16:01:18;7.2;4.8;3.2
61879;PMS7003;47817;52.798;27.544;2023-04-26T16:06:54;7.2;5.6;4.4
61879;PMS7003;47817;52.798;27.544;2023-04-26T16:11:28;5.5;4.3;3.5
61879;PMS7003;47817;52.798;27.544;2023-04-26T16:16:56;4.4;3.6;2.4
61879;PMS7003;47817;52.798;27.544;2023-04-26T16:21:20;4.8;3.2;2.6
61879;PMS7003;47817;52.798;27.544;2023-04-26T16:26:48;7.2;4.6;3.2
61879;PMS7003;47817;52.798;27.544;2023-04-26T16:31:38;5;4.2;3
61879;PMS7003;47817;52.798;27.544;2023-04-26T16:36:10;4.8;3.2;2.6
61879;PMS7003;47817;52.798;27.544;2023-04-26T16:41:34;4.8;3.4;3
61879;PMS7003;47817;52.798;27.544;2023-04-26T16:46:20;3;2.6;2.4
61879;PMS7003;47817;52.798;27.544;2023-04-26T16:51:54;2;1.4;1
61879;PMS7003;47817;52.798;27.544;2023-04-26T16:56:18;1.8;1.2;0.8
61879;PMS7003;47817;52.798;27.544;2023-04-26T17:01:08;1.6;0.8;0.8
61879;PMS7003;47817;52.798;27.544;2023-04-26T17:06:56;1.8;0.8;0.8
61879;PMS7003;47817;52.798;27.544;2023-04-26T17:11:18;1;0.5;0.5
61879;PMS7003;47817;52.798;27.544;2023-04-26T17:16:08;1.4;1.2;1
61879;PMS7003;47817;52.798;27.544;2023-04-26T17:21:22;1.2;1;0.6
61879;PMS7003;47817;52.798;27.544;2023-04-26T17:26:56;1;0.8;0.6
61879;PMS7003;47817;52.798;27.544;2023-04-26T17:31:08;1;0.5;0.3
61879;PMS7003;47817;52.798;27.544;2023-04-26T17:36:08;0.2;0.2;0.2
61879;PMS7003;47817;52.798;27.544;2023-04-26T17:41:54;1;0;0
61879;PMS7003;47817;52.798;27.544;2023-04-26T17:46:54;0.2;0.2;0.2
61879;PMS7003;47817;52.798;27.544;2023-04-26T17:51:20;1.2;1;0.6
61879;PMS7003;47817;52.798;27.544;2023-04-26T17:56:20;1.2;0.4;0.4
61879;PMS7003;47817;52.798;27.544;2023-04-26T18:01:54;0.8;0.2;0.2
61879;PMS7003;47817;52.798;27.544;2023-04-26T18:06:24;1;0.6;0.4
61879;PMS7003;47817;52.798;27.544;2023-04-26T18:11:20;0.2;0.2;0
61879;PMS7003;47817;52.798;27.544;2023-04-26T18:16:20;0.5;0;0
61879;PMS7003;47817;52.798;27.544;2023-04-26T18:21:42;0;0;0
61879;PMS7003;47817;52.798;27.544;2023-04-26T18:26:26;0.6;0.4;0.2
61879;PMS7003;47817;52.798;27.544;2023-04-26T18:31:08;0.6;0.2;0
61879;PMS7003;47817;52.798;27.544;2023-04-26T18:36:58;7.2;6.4;4.4
61879;PMS7003;47817;52.798;27.544;2023-04-26T18:41:34;0.6;0.2;0
61879;PMS7003;47817;52.798;27.544;2023-04-26T18:46:58;0.2;0.2;0
61879;PMS7003;47817;52.798;27.544;2023-04-26T18:51:42;0.6;0;0
61879;PMS7003;47817;52.798;27.544;2023-04-26T18:56:32;0.2;0.2;0.2
61879;PMS7003;47817;52.798;27.544;2023-04-26T19:01:40;1.2;0.6;0.6
61879;PMS7003;47817;52.798;27.544;2023-04-26T19:06:26;0.4;0.4;0
61879;PMS7003;47817;52.798;27.544;2023-04-26T19:11:08;0.8;0.5;0.3
61879;PMS7003;47817;52.798;27.544;2023-04-26T19:16:48;0.6;0;0
61879;PMS7003;47817;52.798;27.544;2023-04-26T19:21:56;0.4;0.2;0
61879;PMS7003;47817;52.798;27.544;2023-04-26T19:26:20;0.2;0.2;0
61879;PMS7003;47817;52.798;27.544;2023-04-26T19:31:56;1;0.8;0.8
61879;PMS7003;47817;52.798;27.544;2023-04-26T19:36:40;2.2;0.4;0.4
61879;PMS7003;47817;52.798;27.544;2023-04-26T19:41:40;0.8;0.8;0.3
61879;PMS7003;47817;52.798;27.544;2023-04-26T19:46:20;2.2;1;1
61879;PMS7003;47817;52.798;27.544;2023-04-26T19:51:12;1.8;0.6;0.6
61879;PMS7003;47817;52.798;27.544;2023-04-26T19:56:23;1;1;0.4
61879;PMS7003;47817;52.798;27.544;2023-04-26T20:01:40;1;1;0.8
61879;PMS7003;47817;52.798;27.544;2023-04-26T20:06:20;1;1;1
61879;PMS7003;47817;52.798;27.544;2023-04-26T20:11:56;1.8;1;1
61879;PMS7003;47817;52.798;27.544;2023-04-26T20:16:14;1.6;0.8;0.8
61879;PMS7003;47817;52.798;27.544;2023-04-26T20:21:08;1.3;1;0.8
61879;PMS7003;47817;52.798;27.544;2023-04-26T20:26:46;1.6;0.6;0.6
61879;PMS7003;47817;52.798;27.544;2023-04-26T20:31:54;2;1.2;1
61879;PMS7003;47817;52.798;27.544;2023-04-26T20:36:08;2.4;1.4;1
61879;PMS7003;47817;52.798;27.544;2023-04-26T20:41:34;2.4;1.2;1
61879;PMS7003;47817;52.798;27.544;2023-04-26T20:46:56;2.2;1.2;1.2
61879;PMS7003;47817;52.798;27.544;2023-04-26T20:51:56;1.6;0.8;0.6
61879;PMS7003;47817;52.798;27.544;2023-04-26T20:56:20;2.8;1.6;1.4
61879;PMS7003;47817;52.798;27.544;2023-04-26T21:01:24;27.2;20.4;13.8
61879;PMS7003;47817;52.798;27.544;2023-04-26T21:06:54;5;3.8;2.5
61879;PMS7003;47817;52.798;27.544;2023-04-26T21:11:16;6.8;5;3
61879;PMS7003;47817;52.798;27.544;2023-04-26T21:16:08;4.6;3;2.2
61879;PMS7003;47817;52.798;27.544;2023-04-26T21:21:08;2;1.2;0.8
61879;PMS7003;47817;52.798;27.544;2023-04-26T21:26:24;1.2;1.2;0.8
61879;PMS7003;47817;52.798;27.544;2023-04-26T21:31:14;1.2;1;0.8
61879;PMS7003;47817;52.798;27.544;2023-04-26T21:36:30;1.3;1.3;1.3
61879;PMS7003;47817;52.798;27.544;2023-04-26T21:41:56;2.6;1.8;1.2
61879;PMS7003;47817;52.798;27.544;2023-04-26T21:46:08;2.8;1.4;1.2
61879;PMS7003;47817;52.798;27.544;2023-04-26T21:51:56;3;2;1.4
61879;PMS7003;47817;52.798;27.544;2023-04-26T21:56:40;2.2;1.6;1.2
61879;PMS7003;47817;52.798;27.544;2023-04-26T22:01:28;2;1.4;1.2
61879;PMS7003;47817;52.798;27.544;2023-04-26T22:06:42;2.8;2.2;2
61879;PMS7003;47817;52.798;27.544;2023-04-26T22:11:20;4;1.6;1.4
61879;PMS7003;47817;52.798;27.544;2023-04-26T22:16:20;3.4;2;1.4
61879;PMS7003;47817;52.798;27.544;2023-04-26T22:21:48;2.6;2.2;1.6
61879;PMS7003;47817;52.798;27.544;2023-04-26T22:26:56;2.5;1.5;1.5
61879;PMS7003;47817;52.798;27.544;2023-04-26T22:31:33;3.2;3.2;2
61879;PMS7003;47817;52.798;27.544;2023-04-26T22:36:30;3.2;1.8;1.6
61879;PMS7003;47817;52.798;27.544;2023-04-26T22:41:56;3.2;2.6;1.8
61879;PMS7003;47817;52.798;27.544;2023-04-26T22:46:22;3.2;2.4;1.8
61879;PMS7003;47817;52.798;27.544;2023-04-26T22:51:08;3.8;2.4;2
61879;PMS7003;47817;52.798;27.544;2023-04-26T22:56:08;3.8;2.4;1.6
61879;PMS7003;47817;52.798;27.544;2023-04-26T23:01:48;2.6;2.2;2
61879;PMS7003;47817;52.798;27.544;2023-04-26T23:06:22;3;2.8;2
61879;PMS7003;47817;52.798;27.544;2023-04-26T23:11:20;5.5;4;3.5
61879;PMS7003;47817;52.798;27.544;2023-04-26T23:16:56;3.2;3;2.4
61879;PMS7003;47817;52.798;27.544;2023-04-26T23:21:54;4.4;2.6;1.8
61879;PMS7003;47817;52.798;27.544;2023-04-26T23:26:14;4.4;2.6;2.4
61879;PMS7003;47817;52.798;27.544;2023-04-26T23:31:32;3.8;3.8;2.5
61879;PMS7003;47817;52.798;27.544;2023-04-26T23:36:42;6.6;5;3.4
61879;PMS7003;47817;52.798;27.544;2023-04-26T23:41:08;6.8;4;3.2
61879;PMS7003;47817;52.798;27.544;2023-04-26T23:46:34;6;4.4;4
61879;PMS7003;47817;52.798;27.544;2023-04-26T23:51:38;5.4;3.4;2.8
61879;PMS7003;47817;52.798;27.544;2023-04-26T23:56:08;4.2;2.8;2.2
